Terminal Aerodrome Forecast
Issued by NWS North Platte, NE

Home | Current Version | Previous Version | Text Only | Print | Product List | Glossary On
Versions: 1 2 3 4 5 6 7 8 9 10 11 12 13 14 15 16 17 18
055
FTUS43 KLBF 291125
TAFVTN
TAF
KVTN 291125Z 2912/3012 02006KT P6SM OVC110
     FM291500 04010KT P6SM BKN200
     FM291700 03013G21KT P6SM BKN200
     FM300300 02009KT P6SM OVC080
     FM301100 35009KT P6SM OVC060=

USA.gov is the U.S. government's official web portal to all federal, state and local government web resources and services.